createdAt,value
2019-02-17T00:00:15.090Z,0.70
2019-02-17T00:02:43.810Z,0.80
2019-02-17T00:05:12.719Z,0.80
2019-02-17T00:07:41.520Z,0.70
2019-02-17T00:10:10.350Z,0.70
2019-02-17T00:12:38.979Z,0.80
2019-02-17T00:15:08.935Z,0.70
2019-02-17T00:17:37.698Z,0.80
2019-02-17T00:20:08.202Z,0.70
2019-02-17T00:22:36.957Z,0.70
2019-02-17T00:25:07.290Z,0.70
2019-02-17T00:27:36.047Z,0.60
2019-02-17T00:30:07.280Z,0.70
2019-02-17T00:32:36.127Z,0.60
2019-02-17T00:35:06.473Z,0.50
2019-02-17T00:37:35.323Z,0.50
2019-02-17T00:40:04.855Z,0.50
2019-02-17T00:42:33.584Z,0.40
2019-02-17T00:45:02.375Z,0.40
2019-02-17T00:47:31.157Z,0.40
2019-02-17T00:49:59.871Z,0.40
2019-02-17T00:52:28.638Z,0.40
2019-02-17T00:54:57.377Z,0.40
2019-02-17T00:57:26.162Z,0.30
2019-02-17T00:59:54.993Z,0.30
2019-02-17T01:02:23.834Z,0.20
2019-02-17T01:04:52.661Z,0.10
2019-02-17T01:07:21.509Z,0.00
2019-02-17T01:09:50.301Z,0.00
2019-02-17T01:12:19.154Z,0.00
2019-02-17T01:14:48.017Z,0.00
2019-02-17T01:17:16.744Z,0.00
2019-02-17T01:19:45.687Z,0.10
2019-02-17T01:22:14.366Z,0.00
2019-02-17T01:24:43.229Z,0.00
2019-02-17T01:27:12.122Z,-0.10
2019-02-17T01:29:40.913Z,0.00
2019-02-17T01:32:09.829Z,0.00
2019-02-17T01:34:38.610Z,-0.10
2019-02-17T01:37:07.485Z,0.00
2019-02-17T01:39:36.267Z,0.10
2019-02-17T01:42:05.145Z,0.00
2019-02-17T01:44:33.835Z,0.10
2019-02-17T01:47:02.655Z,0.00
2019-02-17T01:49:31.410Z,0.00
2019-02-17T01:52:00.290Z,0.00
2019-02-17T01:54:29.032Z,-0.10
2019-02-17T01:56:57.809Z,-0.20
2019-02-17T01:59:30.711Z,-0.30
2019-02-17T02:01:56.924Z,-0.40
2019-02-17T02:04:25.717Z,-0.40
2019-02-17T02:06:54.499Z,-0.40
2019-02-17T02:09:23.350Z,-0.40
2019-02-17T02:11:52.058Z,-0.50
2019-02-17T02:14:20.854Z,-0.50
2019-02-17T02:16:49.795Z,-0.60
2019-02-17T02:19:18.577Z,-0.60
2019-02-17T02:21:47.405Z,-0.50
2019-02-17T02:24:16.342Z,-0.40
2019-02-17T02:26:45.188Z,-0.40
2019-02-17T02:29:13.841Z,-0.40
2019-02-17T02:31:42.662Z,-0.50
2019-02-17T02:34:11.434Z,-0.50
2019-02-17T02:36:40.117Z,-0.60
2019-02-17T02:39:08.958Z,-0.60
2019-02-17T02:41:37.805Z,-0.70
2019-02-17T02:44:06.729Z,-0.60
2019-02-17T02:46:35.489Z,-0.60
2019-02-17T02:49:04.231Z,-0.60
2019-02-17T02:51:33.035Z,-0.60
2019-02-17T02:54:01.999Z,-0.60
2019-02-17T02:56:30.719Z,-0.50
2019-02-17T02:58:59.485Z,-0.50
2019-02-17T03:01:28.336Z,-0.50
2019-02-17T03:03:57.172Z,-0.50
2019-02-17T03:06:27.609Z,-0.60
2019-02-17T03:08:56.437Z,-0.70
2019-02-17T03:11:25.167Z,-0.60
2019-02-17T03:13:53.959Z,-0.70
2019-02-17T03:16:22.651Z,-0.70
2019-02-17T03:18:51.490Z,-0.80
2019-02-17T03:21:20.192Z,-0.80
2019-02-17T03:23:48.968Z,-0.80
2019-02-17T03:26:17.780Z,-0.90
2019-02-17T03:28:46.604Z,-0.90
2019-02-17T03:31:15.391Z,-0.90
2019-02-17T03:33:44.131Z,-0.90
2019-02-17T03:36:12.863Z,-0.90
2019-02-17T03:38:41.821Z,-0.90
2019-02-17T03:41:10.677Z,-0.90
2019-02-17T03:43:39.479Z,-0.90
2019-02-17T03:46:08.404Z,-0.90
2019-02-17T03:48:37.235Z,-0.90
2019-02-17T03:51:06.108Z,-0.80
2019-02-17T03:53:34.973Z,-0.90
2019-02-17T03:56:03.774Z,-1.00
2019-02-17T03:58:32.494Z,-1.00
2019-02-17T04:01:01.429Z,-1.00
2019-02-17T04:03:30.252Z,-1.00
2019-02-17T04:05:58.950Z,-1.00
2019-02-17T04:08:27.801Z,-1.00
2019-02-17T04:10:56.627Z,-1.10
2019-02-17T04:13:25.413Z,-1.10
2019-02-17T04:15:54.209Z,-1.10
2019-02-17T04:18:23.110Z,-1.10
2019-02-17T04:20:51.931Z,-1.20
2019-02-17T04:23:30.784Z,-1.20
2019-02-17T04:25:52.788Z,-1.20
2019-02-17T04:28:21.511Z,-1.20
2019-02-17T04:30:50.352Z,-1.20
2019-02-17T04:33:19.199Z,-1.20
2019-02-17T04:35:47.789Z,-1.20
2019-02-17T04:38:16.705Z,-1.10
2019-02-17T04:40:45.373Z,-1.10
2019-02-17T04:43:14.142Z,-1.20
2019-02-17T04:45:42.903Z,-1.30
2019-02-17T04:48:11.605Z,-1.30
2019-02-17T04:50:40.348Z,-1.40
2019-02-17T04:53:09.277Z,-1.40
2019-02-17T04:55:38.043Z,-1.40
2019-02-17T04:58:06.781Z,-1.40
2019-02-17T05:00:40.367Z,-1.40
2019-02-17T05:03:06.061Z,-1.40
2019-02-17T05:05:34.886Z,-1.40
2019-02-17T05:08:03.724Z,-1.30
2019-02-17T05:10:32.526Z,-1.30
2019-02-17T05:13:01.398Z,-1.30
2019-02-17T05:15:30.221Z,-1.30
2019-02-17T05:17:58.985Z,-1.40
2019-02-17T05:20:27.791Z,-1.50
2019-02-17T05:22:57.431Z,-1.50
2019-02-17T05:25:26.175Z,-1.50
2019-02-17T05:27:54.905Z,-1.50
2019-02-17T05:30:23.721Z,-1.60
2019-02-17T05:32:52.457Z,-1.50
2019-02-17T05:35:21.227Z,-1.50
2019-02-17T05:37:50.088Z,-1.50
2019-02-17T05:40:18.874Z,-1.50
2019-02-17T05:42:47.729Z,-1.50
2019-02-17T05:45:16.726Z,-1.40
2019-02-17T05:47:45.596Z,-1.40
2019-02-17T05:50:14.488Z,-1.40
2019-02-17T05:52:43.388Z,-1.40
2019-02-17T05:55:12.123Z,-1.40
2019-02-17T05:57:40.989Z,-1.40
2019-02-17T06:00:12.132Z,-1.40
2019-02-17T06:02:40.842Z,-1.30
2019-02-17T06:05:09.627Z,-1.30
2019-02-17T06:07:38.563Z,-1.30
2019-02-17T06:10:09.456Z,-1.30
2019-02-17T06:12:38.278Z,-1.20
2019-02-17T06:15:07.513Z,-1.10
2019-02-17T06:17:36.414Z,-1.00
2019-02-17T06:20:08.543Z,-0.90
2019-02-17T06:22:37.361Z,-0.80
2019-02-17T06:25:06.375Z,-0.70
2019-02-17T06:27:35.205Z,-0.50
2019-02-17T06:30:05.827Z,-0.20
2019-02-17T06:32:34.665Z,0.00
2019-02-17T06:35:03.448Z,0.20
2019-02-17T06:37:32.132Z,0.40
2019-02-17T06:40:00.736Z,0.60
2019-02-17T06:42:29.567Z,0.90
2019-02-17T06:44:58.418Z,1.40
2019-02-17T06:47:28.733Z,2.20
2019-02-17T06:49:57.294Z,3.10
2019-02-17T06:52:26.201Z,3.90
2019-02-17T06:54:59.319Z,4.80
2019-02-17T06:57:29.799Z,5.70
2019-02-17T07:00:09.026Z,6.60
2019-02-17T07:02:37.750Z,7.60
2019-02-17T07:05:20.561Z,8.40
2019-02-17T07:07:49.415Z,9.10
2019-02-17T07:10:18.073Z,9.60
2019-02-17T07:12:46.823Z,10.20
2019-02-17T07:15:15.561Z,10.90
2019-02-17T07:17:44.318Z,11.50
2019-02-17T07:20:13.019Z,12.30
2019-02-17T07:22:41.858Z,12.90
2019-02-17T07:25:10.738Z,13.40
2019-02-17T07:27:39.417Z,14.00
2019-02-17T07:30:08.334Z,14.70
2019-02-17T07:32:37.185Z,15.20
2019-02-17T07:35:07.004Z,15.70
2019-02-17T07:37:36.215Z,16.10
2019-02-17T07:40:06.056Z,16.60
2019-02-17T07:42:34.863Z,17.30
2019-02-17T07:45:03.918Z,17.60
2019-02-17T07:47:32.615Z,18.30
2019-02-17T07:50:01.426Z,18.90
2019-02-17T07:52:30.385Z,19.80
2019-02-17T07:54:59.278Z,20.40
2019-02-17T07:57:28.242Z,20.90
2019-02-17T07:59:57.068Z,21.50
2019-02-17T08:02:26.270Z,22.10
2019-02-17T08:04:55.022Z,22.60
2019-02-17T08:07:23.749Z,23.10
2019-02-17T08:09:52.690Z,23.50
2019-02-17T08:12:21.485Z,24.10
2019-02-17T08:14:50.422Z,24.70
2019-02-17T08:17:19.269Z,25.00
2019-02-17T08:19:48.194Z,25.30
2019-02-17T08:22:17.006Z,25.70
2019-02-17T08:24:45.741Z,26.00
2019-02-17T08:27:14.425Z,26.60
2019-02-17T08:29:43.200Z,27.40
2019-02-17T08:32:11.974Z,27.80
2019-02-17T08:34:40.833Z,27.70
2019-02-17T08:37:10.097Z,27.30
2019-02-17T08:39:38.996Z,27.40
2019-02-17T08:42:07.906Z,27.40
2019-02-17T08:44:36.646Z,28.00
2019-02-17T08:47:05.577Z,28.90
2019-02-17T08:49:34.630Z,29.90
2019-02-17T08:52:03.516Z,30.40
2019-02-17T08:54:32.361Z,30.40
2019-02-17T08:57:01.129Z,30.80
2019-02-17T08:59:29.981Z,31.30
2019-02-17T09:02:05.624Z,31.70
2019-02-17T09:04:30.022Z,31.00
2019-02-17T09:06:59.163Z,31.30
2019-02-17T09:09:28.024Z,31.40
2019-02-17T09:11:57.084Z,32.30
2019-02-17T09:14:26.347Z,32.70
2019-02-17T09:16:55.239Z,33.60
2019-02-17T09:19:43.336Z,34.40
2019-02-17T09:22:12.071Z,35.20
2019-02-17T09:24:40.811Z,36.10
2019-02-17T09:27:09.491Z,37.30
2019-02-17T09:29:38.183Z,38.20
2019-02-17T09:32:16.100Z,38.80
2019-02-17T09:34:37.348Z,39.20
2019-02-17T09:37:06.093Z,39.30
2019-02-17T09:39:34.971Z,39.50
2019-02-17T09:42:03.912Z,40.00
2019-02-17T09:44:32.828Z,40.50
2019-02-17T09:47:01.729Z,41.10
2019-02-17T09:49:30.466Z,41.50
2019-02-17T09:51:59.232Z,41.30
2019-02-17T09:54:27.903Z,41.80
2019-02-17T09:56:56.788Z,42.40
2019-02-17T09:59:25.544Z,42.90
2019-02-17T10:01:54.377Z,43.10
2019-02-17T10:04:23.124Z,43.50
2019-02-17T10:06:52.081Z,43.90
2019-02-17T10:09:20.934Z,43.80
2019-02-17T10:11:49.742Z,42.70
2019-02-17T10:14:18.661Z,41.80
2019-02-17T10:16:47.473Z,41.50
2019-02-17T10:19:16.392Z,42.30
2019-02-17T10:21:45.207Z,42.10
2019-02-17T10:24:14.015Z,42.60
2019-02-17T10:26:42.865Z,42.50
2019-02-17T10:29:11.970Z,42.80
2019-02-17T10:31:40.788Z,43.10
2019-02-17T10:34:09.835Z,43.40
2019-02-17T10:36:38.567Z,43.50
2019-02-17T10:39:07.518Z,43.20
2019-02-17T10:41:36.397Z,43.30
2019-02-17T10:44:05.238Z,43.20
2019-02-17T10:46:34.035Z,42.90
2019-02-17T10:49:03.526Z,42.60
2019-02-17T10:51:32.369Z,42.60
2019-02-17T10:54:01.190Z,42.80
2019-02-17T10:56:30.049Z,42.70
2019-02-17T10:58:58.888Z,42.90
2019-02-17T11:01:27.523Z,43.60
2019-02-17T11:04:02.039Z,43.80
2019-02-17T11:06:30.827Z,43.90
2019-02-17T11:08:59.580Z,44.80
2019-02-17T11:11:28.419Z,45.10
2019-02-17T11:13:57.240Z,45.30
2019-02-17T11:16:26.103Z,45.80
2019-02-17T11:18:55.082Z,46.10
2019-02-17T11:21:23.843Z,46.40
2019-02-17T11:23:52.902Z,47.00
2019-02-17T11:26:21.928Z,46.90
2019-02-17T11:47:54.604Z,19.90
2019-02-17T11:50:23.909Z,18.30
2019-02-17T11:52:54.335Z,18.20
2019-02-17T11:55:23.238Z,17.90
2019-02-17T11:57:52.150Z,17.80
2019-02-17T12:00:24.036Z,17.60
2019-02-17T12:02:52.979Z,17.90
2019-02-17T12:05:22.248Z,17.90
2019-02-17T12:07:51.167Z,17.70
2019-02-17T12:10:20.144Z,17.80
2019-02-17T12:12:49.103Z,17.90
2019-02-17T12:15:17.981Z,17.90
2019-02-17T12:17:46.947Z,17.70
2019-02-17T12:20:36.289Z,16.90
2019-02-17T12:23:09.469Z,16.60
2019-02-17T12:25:39.925Z,16.70
2019-02-17T12:28:13.115Z,16.60
2019-02-17T12:30:43.414Z,16.50
2019-02-17T12:33:19.209Z,16.90
2019-02-17T12:35:42.567Z,17.30
2019-02-17T12:38:11.454Z,17.30
2019-02-17T12:40:40.305Z,17.40
2019-02-17T12:43:09.277Z,17.10
2019-02-17T12:45:38.121Z,16.90
2019-02-17T12:48:06.904Z,17.00
2019-02-17T12:50:35.644Z,17.10
2019-02-17T12:53:04.501Z,17.20
2019-02-17T12:55:33.221Z,17.30
2019-02-17T12:58:01.947Z,17.30
2019-02-17T13:00:30.710Z,17.20
2019-02-17T13:02:59.516Z,17.30
2019-02-17T13:05:28.371Z,16.80
2019-02-17T13:07:57.392Z,17.20
2019-02-17T13:10:26.215Z,17.40
2019-02-17T13:12:55.046Z,17.30
2019-02-17T13:15:23.905Z,17.10
2019-02-17T13:17:53.086Z,17.80
2019-02-17T13:20:22.084Z,17.80
2019-02-17T13:22:51.066Z,17.70
2019-02-17T13:25:19.755Z,18.00
2019-02-17T13:27:48.532Z,18.20
2019-02-17T13:30:23.036Z,18.10
2019-02-17T13:32:51.858Z,17.90
2019-02-17T13:35:20.773Z,18.20
2019-02-17T13:37:49.623Z,18.40
2019-02-17T13:40:18.542Z,18.80
2019-02-17T13:42:47.303Z,18.90
2019-02-17T13:45:17.680Z,19.40
2019-02-17T13:47:47.043Z,19.30
2019-02-17T13:50:17.175Z,18.90
2019-02-17T13:52:46.086Z,18.90
2019-02-17T13:55:15.007Z,18.30
2019-02-17T13:57:43.782Z,18.50
2019-02-17T14:00:15.267Z,18.50
2019-02-17T14:02:44.112Z,18.80
2019-02-17T14:05:12.926Z,19.10
2019-02-17T14:07:41.883Z,19.60
2019-02-17T14:10:12.162Z,19.60
2019-02-17T14:12:41.065Z,19.70
2019-02-17T14:15:16.030Z,20.20
2019-02-17T14:17:44.714Z,20.60
2019-02-17T14:20:13.495Z,20.90
2019-02-17T14:22:42.275Z,21.00
2019-02-17T14:25:11.488Z,21.20
2019-02-17T14:27:40.665Z,21.70
2019-02-17T14:30:19.691Z,21.40
2019-02-17T14:32:48.421Z,21.80
2019-02-17T14:35:17.219Z,22.30
2019-02-17T14:37:46.016Z,22.50
2019-02-17T14:40:14.997Z,22.40
2019-02-17T14:42:44.187Z,21.30
2019-02-17T14:45:17.128Z,20.10
2019-02-17T14:47:46.484Z,18.90
2019-02-17T14:50:15.393Z,18.00
2019-02-17T14:52:44.167Z,17.30
2019-02-17T14:55:13.428Z,16.80
2019-02-17T14:57:42.268Z,16.40
2019-02-17T15:00:15.621Z,16.20
2019-02-17T15:02:44.501Z,15.90
2019-02-17T15:05:13.454Z,15.80
2019-02-17T15:07:42.326Z,15.60
2019-02-17T15:10:12.553Z,15.70
2019-02-17T15:12:41.445Z,16.80
2019-02-17T15:15:14.440Z,18.10
2019-02-17T15:17:43.254Z,19.00
2019-02-17T15:20:21.056Z,19.70
2019-02-17T15:22:50.373Z,20.10
2019-02-17T15:25:19.267Z,20.30
2019-02-17T15:27:48.277Z,20.30
2019-02-17T15:30:18.087Z,20.20
2019-02-17T15:32:47.134Z,20.00
2019-02-17T15:35:15.960Z,19.80
2019-02-17T15:37:44.781Z,19.50
2019-02-17T15:40:14.484Z,19.20
2019-02-17T15:42:43.551Z,18.90
2019-02-17T15:45:13.723Z,18.50
2019-02-17T15:47:42.423Z,18.00
2019-02-17T15:50:12.549Z,17.40
2019-02-17T15:52:41.408Z,16.40
2019-02-17T15:55:13.777Z,15.70
2019-02-17T15:57:42.998Z,15.00
2019-02-17T16:00:14.833Z,14.40
2019-02-17T16:02:44.213Z,13.70
2019-02-17T16:05:14.531Z,13.20
2019-02-17T16:07:43.547Z,12.70
2019-02-17T16:10:17.940Z,12.30
2019-02-17T16:12:47.165Z,12.00
2019-02-17T16:15:20.454Z,11.70
2019-02-17T16:17:49.340Z,11.30
2019-02-17T16:20:18.197Z,11.10
2019-02-17T16:22:47.102Z,10.90
2019-02-17T16:25:15.985Z,10.70
2019-02-17T16:27:44.922Z,10.50
2019-02-17T16:30:23.781Z,10.30
2019-02-17T16:32:52.767Z,10.10
2019-02-17T16:35:21.627Z,9.90
2019-02-17T16:37:50.400Z,9.90
2019-02-17T16:40:19.789Z,9.70
2019-02-17T16:42:48.471Z,9.70
2019-02-17T16:45:17.588Z,9.70
2019-02-17T16:47:46.373Z,9.60
2019-02-17T16:50:29.575Z,9.50
2019-02-17T16:52:58.215Z,9.50
2019-02-17T16:55:27.153Z,9.30
2019-02-17T16:57:56.009Z,9.10
2019-02-17T17:00:26.679Z,8.90
2019-02-17T17:02:56.324Z,8.70
2019-02-17T17:05:25.990Z,8.40
2019-02-17T17:07:54.996Z,8.30
2019-02-17T17:10:23.870Z,8.20
2019-02-17T17:12:52.888Z,8.00
2019-02-17T17:15:21.685Z,7.90
2019-02-17T17:17:50.481Z,7.90
2019-02-17T17:20:20.295Z,7.70
2019-02-17T17:22:49.104Z,7.60
2019-02-17T17:25:17.880Z,7.50
2019-02-17T17:27:46.726Z,7.30
2019-02-17T17:30:16.961Z,7.30
2019-02-17T17:32:45.800Z,7.10
2019-02-17T17:35:14.698Z,7.00
2019-02-17T17:37:43.478Z,6.90
2019-02-17T17:40:14.418Z,6.70
2019-02-17T17:42:43.356Z,6.90
2019-02-17T17:45:22.525Z,7.10
2019-02-17T17:47:51.861Z,7.20
2019-02-17T17:50:20.678Z,7.20
2019-02-17T17:52:49.624Z,7.20
2019-02-17T17:55:18.799Z,7.20
2019-02-17T17:57:47.634Z,7.20
2019-02-17T18:00:31.235Z,7.20
2019-02-17T18:03:00.473Z,7.20
2019-02-17T18:05:29.320Z,7.20
2019-02-17T18:07:58.206Z,7.10
2019-02-17T18:10:27.040Z,7.00
2019-02-17T18:12:55.869Z,6.80
2019-02-17T18:15:25.218Z,6.60
2019-02-17T18:17:55.081Z,6.50
2019-02-17T18:20:24.099Z,6.40
2019-02-17T18:22:53.066Z,6.30
2019-02-17T18:25:21.905Z,6.10
2019-02-17T18:27:50.841Z,6.00
2019-02-17T18:30:22.855Z,5.90
2019-02-17T18:32:51.684Z,5.90
2019-02-17T18:35:20.894Z,5.80
2019-02-17T18:37:49.881Z,5.70
2019-02-17T18:40:21.475Z,5.60
2019-02-17T18:42:50.194Z,5.50
2019-02-17T18:45:18.976Z,5.40
2019-02-17T18:47:47.723Z,5.30
2019-02-17T18:50:19.603Z,5.20
2019-02-17T18:52:48.473Z,5.20
2019-02-17T18:55:17.357Z,5.30
2019-02-17T18:57:49.913Z,5.40
2019-02-17T19:00:24.086Z,5.50
2019-02-17T19:02:52.813Z,5.40
2019-02-17T19:05:31.147Z,5.40
2019-02-17T19:07:52.593Z,5.20
2019-02-17T19:10:21.515Z,5.00
2019-02-17T19:12:50.554Z,4.90
2019-02-17T19:15:21.067Z,4.90
2019-02-17T19:17:49.941Z,4.80
2019-02-17T19:20:28.713Z,4.80
2019-02-17T19:22:57.529Z,4.80
2019-02-17T19:25:26.456Z,4.80
2019-02-17T19:27:55.392Z,4.70
2019-02-17T19:30:24.171Z,4.70
2019-02-17T19:32:54.624Z,4.60
2019-02-17T19:35:23.469Z,4.50
2019-02-17T19:37:52.463Z,4.40
2019-02-17T19:40:21.447Z,4.30
2019-02-17T19:42:50.325Z,4.20
2019-02-17T19:45:19.971Z,4.20
2019-02-17T19:47:48.832Z,4.10
2019-02-17T19:50:18.105Z,4.00
2019-02-17T19:52:47.050Z,4.00
2019-02-17T19:55:15.922Z,3.90
2019-02-17T19:57:45.031Z,3.90
2019-02-17T20:00:21.794Z,3.80
2019-02-17T20:03:10.416Z,3.80
2019-02-17T20:05:51.872Z,3.70
2019-02-17T20:08:37.232Z,3.60
2019-02-17T20:11:07.737Z,3.50
2019-02-17T20:13:36.936Z,3.50
2019-02-17T20:16:07.144Z,3.40
2019-02-17T20:18:57.007Z,3.40
2019-02-17T20:21:25.809Z,3.40
2019-02-17T20:23:54.600Z,3.40
2019-02-17T20:26:23.456Z,3.40
2019-02-17T20:28:57.148Z,3.30
2019-02-17T20:31:22.896Z,3.30
2019-02-17T20:33:54.626Z,3.20
2019-02-17T20:36:23.566Z,3.20
2019-02-17T20:38:52.410Z,3.10
2019-02-17T20:41:21.283Z,3.10
2019-02-17T20:43:50.162Z,3.10
2019-02-17T20:46:18.886Z,3.00
2019-02-17T20:49:45.426Z,3.00
2019-02-17T20:52:14.639Z,3.00
2019-02-17T20:54:46.093Z,2.90
2019-02-17T20:57:14.337Z,2.90
2019-02-17T20:59:43.150Z,2.80
2019-02-17T21:02:11.934Z,2.80
2019-02-17T21:04:41.033Z,2.80
2019-02-17T21:07:09.974Z,2.70
2019-02-17T21:09:38.846Z,2.70
2019-02-17T21:12:07.807Z,2.70
2019-02-17T21:14:36.665Z,2.70
2019-02-17T21:17:05.434Z,2.60
2019-02-17T21:19:34.430Z,2.60
2019-02-17T21:22:03.095Z,2.60
2019-02-17T21:24:31.838Z,2.60
2019-02-17T21:27:00.694Z,2.50
2019-02-17T21:29:29.898Z,2.50
2019-02-17T21:31:58.894Z,2.50
2019-02-17T21:34:27.907Z,2.50
2019-02-17T21:36:56.678Z,2.40
2019-02-17T21:39:25.747Z,2.40
2019-02-17T21:41:54.830Z,2.30
2019-02-17T21:44:24.054Z,2.30
2019-02-17T21:46:52.999Z,2.20
2019-02-17T21:49:21.820Z,2.20
2019-02-17T21:51:50.645Z,2.20
2019-02-17T21:54:19.577Z,2.10
2019-02-17T21:56:48.427Z,2.10
2019-02-17T21:59:17.833Z,2.10
2019-02-17T22:01:46.921Z,2.10
2019-02-17T22:04:15.863Z,2.00
2019-02-17T22:06:44.748Z,2.00
2019-02-17T22:09:13.683Z,1.90
2019-02-17T22:11:42.614Z,1.90
2019-02-17T22:14:11.471Z,1.90
2019-02-17T22:16:40.462Z,1.90
2019-02-17T22:19:09.214Z,1.90
2019-02-17T22:21:38.021Z,1.80
2019-02-17T22:24:06.796Z,1.70
2019-02-17T22:26:35.873Z,1.70
2019-02-17T22:29:04.799Z,1.80
2019-02-17T22:31:33.635Z,1.90
2019-02-17T22:34:02.710Z,2.00
2019-02-17T22:36:31.693Z,2.10
2019-02-17T22:39:00.348Z,2.10
2019-02-17T22:41:29.345Z,2.10
2019-02-17T22:43:58.053Z,2.10
2019-02-17T22:46:26.828Z,2.00
2019-02-17T22:48:55.767Z,1.90
2019-02-17T22:51:24.655Z,1.90
2019-02-17T22:53:53.490Z,1.80
2019-02-17T22:56:22.353Z,1.80
2019-02-17T22:58:51.319Z,1.70
2019-02-17T23:01:23.119Z,1.60
2019-02-17T23:03:52.023Z,1.50
2019-02-17T23:06:20.759Z,1.50
2019-02-17T23:08:49.557Z,1.50
2019-02-17T23:11:18.448Z,1.40
2019-02-17T23:13:47.337Z,1.30
2019-02-17T23:16:16.130Z,1.30
2019-02-17T23:18:45.009Z,1.20
2019-02-17T23:21:13.796Z,1.20
2019-02-17T23:23:42.690Z,1.10
2019-02-17T23:26:11.666Z,1.10
2019-02-17T23:28:40.518Z,1.00
2019-02-17T23:31:09.329Z,1.00
2019-02-17T23:33:38.153Z,1.00
2019-02-17T23:36:07.084Z,1.00
2019-02-17T23:38:35.839Z,1.00
2019-02-17T23:41:04.851Z,1.10
2019-02-17T23:43:33.488Z,1.20
2019-02-17T23:46:02.256Z,1.20
2019-02-17T23:48:31.111Z,1.20
2019-02-17T23:50:59.839Z,1.20
2019-02-17T23:53:28.469Z,1.20
2019-02-17T23:55:57.459Z,1.10
2019-02-17T23:58:26.183Z,1.00
